createdAt,value
2019-01-12T00:02:22.940Z,2.70
2019-01-12T00:04:49.640Z,2.70
2019-01-12T00:07:16.224Z,2.70
2019-01-12T00:09:42.680Z,2.70
2019-01-12T00:12:09.619Z,2.80
2019-01-12T00:14:36.099Z,2.80
2019-01-12T00:17:02.580Z,2.70
2019-01-12T00:19:29.051Z,2.80
2019-01-12T00:21:55.724Z,2.80
2019-01-12T00:24:22.203Z,2.70
2019-01-12T00:26:48.906Z,2.80
2019-01-12T00:29:16.524Z,2.80
2019-01-12T00:31:42.980Z,2.80
2019-01-12T00:34:09.736Z,2.80
2019-01-12T00:36:36.411Z,2.80
2019-01-12T00:39:04.872Z,2.80
2019-01-12T00:41:31.415Z,2.80
2019-01-12T00:43:58.159Z,2.80
2019-01-12T00:46:24.871Z,2.70
2019-01-12T00:48:51.831Z,2.70
2019-01-12T00:51:18.528Z,2.70
2019-01-12T00:53:45.256Z,2.70
2019-01-12T00:56:11.704Z,2.80
2019-01-12T00:58:38.181Z,2.70
2019-01-12T01:01:04.736Z,2.70
2019-01-12T01:03:31.467Z,2.70
2019-01-12T01:05:58.148Z,2.70
2019-01-12T01:08:24.871Z,2.70
2019-01-12T01:10:51.569Z,2.70
2019-01-12T01:13:18.054Z,2.70
2019-01-12T01:15:44.735Z,2.70
2019-01-12T01:18:11.248Z,2.80
2019-01-12T01:20:37.949Z,2.80
2019-01-12T01:23:04.643Z,2.80
2019-01-12T01:25:31.380Z,2.80
2019-01-12T01:27:58.080Z,2.80
2019-01-12T01:30:24.807Z,2.80
2019-01-12T01:32:51.512Z,2.80
2019-01-12T01:35:18.003Z,2.80
2019-01-12T01:37:44.451Z,2.80
2019-01-12T01:40:11.778Z,2.80
2019-01-12T01:42:38.455Z,2.80
2019-01-12T01:45:04.991Z,2.70
2019-01-12T01:47:31.436Z,2.70
2019-01-12T01:49:57.917Z,2.70
2019-01-12T01:52:24.608Z,2.80
2019-01-12T01:54:52.899Z,2.80
2019-01-12T01:57:19.653Z,2.80
2019-01-12T01:59:46.133Z,2.80
2019-01-12T02:02:12.827Z,2.80
2019-01-12T02:04:39.470Z,2.90
2019-01-12T02:07:06.167Z,2.90
2019-01-12T02:09:32.655Z,2.90
2019-01-12T02:11:59.095Z,2.90
2019-01-12T02:14:25.840Z,2.90
2019-01-12T02:16:52.625Z,3.00
2019-01-12T02:19:19.131Z,3.00
2019-01-12T02:21:45.824Z,3.00
2019-01-12T02:24:12.784Z,3.00
2019-01-12T02:26:39.712Z,2.90
2019-01-12T02:29:06.695Z,2.90
2019-01-12T02:31:33.143Z,2.90
2019-01-12T02:33:59.875Z,3.00
2019-01-12T02:36:26.652Z,3.00
2019-01-12T02:38:53.101Z,3.00
2019-01-12T02:41:19.575Z,3.00
2019-01-12T02:43:46.253Z,2.90
2019-01-12T02:46:12.736Z,2.90
2019-01-12T02:48:39.176Z,2.80
2019-01-12T02:51:06.437Z,2.90
2019-01-12T02:53:33.112Z,3.00
2019-01-12T02:56:00.067Z,3.00
2019-01-12T02:58:26.515Z,3.00
2019-01-12T03:00:52.996Z,3.00
2019-01-12T03:03:19.546Z,3.00
2019-01-12T03:05:46.518Z,3.00
2019-01-12T03:08:13.300Z,3.00
2019-01-12T03:10:40.013Z,2.90
2019-01-12T03:13:06.741Z,2.90
2019-01-12T03:15:33.533Z,3.00
2019-01-12T03:18:00.457Z,3.00
2019-01-12T03:20:26.937Z,3.00
2019-01-12T03:22:53.608Z,2.90
2019-01-12T03:25:20.337Z,2.90
2019-01-12T03:27:47.036Z,2.70
2019-01-12T03:30:14.513Z,2.60
2019-01-12T03:32:41.281Z,2.50
2019-01-12T03:35:07.789Z,2.50
2019-01-12T03:37:34.941Z,2.40
2019-01-12T03:40:01.710Z,2.50
2019-01-12T03:42:28.261Z,2.50
2019-01-12T03:44:54.933Z,2.50
2019-01-12T03:47:21.602Z,2.50
2019-01-12T03:49:48.300Z,2.60
2019-01-12T03:52:15.028Z,2.60
2019-01-12T03:54:41.719Z,2.60
2019-01-12T03:57:08.423Z,2.60
2019-01-12T03:59:35.167Z,2.60
2019-01-12T04:02:01.901Z,2.60
2019-01-12T04:04:28.607Z,2.60
2019-01-12T04:06:55.080Z,2.60
2019-01-12T04:09:21.780Z,2.50
2019-01-12T04:11:48.488Z,2.50
2019-01-12T04:14:15.180Z,2.50
2019-01-12T04:16:41.657Z,2.50
2019-01-12T04:19:08.107Z,2.50
2019-01-12T04:21:34.817Z,2.40
2019-01-12T04:24:01.495Z,2.50
2019-01-12T04:26:28.221Z,2.50
2019-01-12T04:28:55.125Z,2.50
2019-01-12T04:31:22.074Z,2.50
2019-01-12T04:33:48.612Z,2.60
2019-01-12T04:36:15.373Z,2.60
2019-01-12T04:38:42.051Z,2.60
2019-01-12T04:41:08.528Z,2.60
2019-01-12T04:43:35.207Z,2.60
2019-01-12T04:46:02.174Z,2.60
2019-01-12T04:48:28.630Z,2.60
2019-01-12T04:50:55.112Z,2.60
2019-01-12T04:53:21.791Z,2.50
2019-01-12T04:55:48.273Z,2.60
2019-01-12T04:58:15.230Z,2.50
2019-01-12T05:00:41.710Z,2.50
2019-01-12T05:03:08.405Z,2.40
2019-01-12T05:05:35.101Z,2.30
2019-01-12T05:08:01.580Z,2.30
2019-01-12T05:10:28.032Z,2.20
2019-01-12T05:12:54.761Z,2.20
2019-01-12T05:15:21.221Z,2.20
2019-01-12T05:17:47.952Z,2.10
2019-01-12T05:20:15.565Z,1.90
2019-01-12T05:22:42.388Z,1.80
2019-01-12T05:25:09.066Z,1.80
2019-01-12T05:27:35.648Z,1.80
2019-01-12T05:30:02.273Z,1.80
2019-01-12T05:32:28.748Z,1.80
2019-01-12T05:34:55.689Z,1.90
2019-01-12T05:37:22.506Z,1.90
2019-01-12T05:39:48.954Z,1.90
2019-01-12T05:42:15.682Z,1.90
2019-01-12T05:44:42.604Z,1.80
2019-01-12T05:47:09.084Z,1.70
2019-01-12T05:49:35.761Z,1.60
2019-01-12T05:52:02.492Z,1.60
2019-01-12T05:54:29.202Z,1.50
2019-01-12T05:56:55.772Z,1.60
2019-01-12T05:59:22.476Z,1.70
2019-01-12T06:01:49.206Z,1.70
2019-01-12T06:04:15.655Z,1.80
2019-01-12T06:06:42.384Z,1.80
2019-01-12T06:09:08.835Z,1.80
2019-01-12T06:11:35.317Z,1.80
2019-01-12T06:14:02.013Z,1.90
2019-01-12T06:16:28.740Z,1.90
2019-01-12T06:18:55.227Z,1.90
2019-01-12T06:21:21.988Z,1.90
2019-01-12T06:23:48.699Z,1.90
2019-01-12T06:26:15.149Z,1.80
2019-01-12T06:28:42.099Z,1.70
2019-01-12T06:31:08.548Z,1.60
2019-01-12T06:33:35.028Z,1.50
2019-01-12T06:36:01.728Z,1.60
2019-01-12T06:38:28.203Z,1.60
2019-01-12T06:40:54.648Z,1.70
2019-01-12T06:43:21.237Z,1.70
2019-01-12T06:45:47.935Z,1.70
2019-01-12T06:48:14.664Z,1.80
2019-01-12T06:50:41.364Z,1.80
2019-01-12T06:53:08.559Z,1.80
2019-01-12T06:55:35.252Z,1.70
2019-01-12T06:58:01.864Z,1.70
2019-01-12T07:00:28.560Z,1.70
2019-01-12T07:02:55.292Z,1.70
2019-01-12T07:05:21.967Z,1.60
2019-01-12T07:07:48.701Z,1.60
2019-01-12T07:10:15.151Z,1.60
2019-01-12T07:12:41.667Z,1.60
2019-01-12T07:15:09.203Z,1.60
2019-01-12T07:17:35.684Z,1.60
2019-01-12T07:20:02.315Z,1.50
2019-01-12T07:22:28.789Z,1.40
2019-01-12T07:24:55.707Z,1.40
2019-01-12T07:27:22.412Z,1.50
2019-01-12T07:29:48.860Z,1.50
2019-01-12T07:32:15.341Z,1.60
2019-01-12T07:34:42.563Z,1.60
2019-01-12T07:37:09.045Z,1.70
2019-01-12T07:39:35.504Z,1.70
2019-01-12T07:42:01.988Z,1.70
2019-01-12T07:44:28.912Z,1.70
2019-01-12T07:46:55.366Z,1.70
2019-01-12T07:49:21.852Z,1.70
2019-01-12T07:51:48.307Z,1.70
2019-01-12T07:54:15.036Z,1.80
2019-01-12T07:56:41.759Z,1.80
2019-01-12T07:59:08.513Z,1.90
2019-01-12T08:01:35.468Z,1.90
2019-01-12T08:04:01.945Z,1.90
2019-01-12T08:06:28.396Z,2.00
2019-01-12T08:08:54.904Z,2.00
2019-01-12T08:11:21.351Z,2.00
2019-01-12T08:13:47.831Z,2.10
2019-01-12T08:16:14.284Z,2.10
2019-01-12T08:18:40.767Z,2.20
2019-01-12T08:21:07.942Z,2.30
2019-01-12T08:23:34.421Z,2.40
2019-01-12T08:26:01.127Z,2.40
2019-01-12T08:28:27.607Z,2.40
2019-01-12T08:30:54.163Z,2.40
2019-01-12T08:33:20.645Z,2.50
2019-01-12T08:35:47.096Z,2.50
2019-01-12T08:38:13.776Z,2.60
2019-01-12T08:40:40.480Z,2.70
2019-01-12T08:43:06.956Z,2.80
2019-01-12T08:45:33.511Z,2.90
2019-01-12T08:48:00.268Z,3.10
2019-01-12T08:50:26.924Z,3.10
2019-01-12T08:52:53.756Z,3.00
2019-01-12T08:55:20.208Z,3.10
2019-01-12T08:57:46.976Z,3.30
2019-01-12T09:00:17.124Z,3.70
2019-01-12T09:02:43.837Z,4.30
2019-01-12T09:05:10.294Z,5.40
2019-01-12T09:07:37.319Z,6.60
2019-01-12T09:10:04.472Z,7.70
2019-01-12T09:12:31.205Z,7.20
2019-01-12T09:14:57.684Z,6.30
2019-01-12T09:17:24.388Z,5.70
2019-01-12T09:19:50.867Z,5.40
2019-01-12T09:22:17.567Z,6.10
2019-01-12T09:24:44.304Z,6.90
2019-01-12T09:27:10.755Z,7.60
2019-01-12T09:29:37.488Z,7.80
2019-01-12T09:32:04.188Z,8.60
2019-01-12T09:34:30.704Z,8.60
2019-01-12T09:36:57.157Z,7.50
2019-01-12T09:39:23.883Z,6.60
2019-01-12T09:41:50.780Z,6.00
2019-01-12T09:44:17.257Z,5.50
2019-01-12T09:46:43.960Z,5.10
2019-01-12T09:49:10.449Z,4.70
2019-01-12T09:51:37.222Z,4.40
2019-01-12T09:54:03.976Z,4.20
2019-01-12T09:56:30.429Z,4.10
2019-01-12T09:58:56.911Z,4.00
2019-01-12T10:01:23.615Z,3.90
2019-01-12T10:03:51.147Z,3.70
2019-01-12T10:06:17.609Z,3.70
2019-01-12T10:08:44.342Z,3.70
2019-01-12T10:11:10.795Z,3.60
2019-01-12T10:13:37.533Z,3.60
2019-01-12T10:16:04.225Z,3.60
2019-01-12T10:18:30.709Z,3.70
2019-01-12T10:20:57.409Z,3.80
2019-01-12T10:23:23.891Z,4.00
2019-01-12T10:25:50.351Z,4.20
2019-01-12T10:28:17.026Z,4.30
2019-01-12T10:30:43.475Z,4.40
2019-01-12T10:33:10.215Z,4.40
2019-01-12T10:35:36.700Z,4.10
2019-01-12T10:38:03.708Z,3.90
2019-01-12T10:40:30.196Z,3.80
2019-01-12T10:42:56.851Z,3.80
2019-01-12T10:45:23.452Z,3.70
2019-01-12T10:47:49.987Z,3.70
2019-01-12T10:50:17.732Z,3.60
2019-01-12T10:52:44.660Z,3.60
2019-01-12T10:55:11.397Z,3.60
2019-01-12T10:57:38.472Z,3.50
2019-01-12T11:00:09.207Z,3.40
2019-01-12T11:02:35.904Z,3.40
2019-01-12T11:05:02.637Z,3.30
2019-01-12T11:07:29.088Z,3.30
2019-01-12T11:09:55.823Z,3.30
2019-01-12T11:12:22.528Z,3.40
2019-01-12T11:14:49.484Z,3.40
2019-01-12T11:17:15.940Z,3.30
2019-01-12T11:19:42.675Z,3.30
2019-01-12T11:22:09.129Z,3.40
2019-01-12T11:24:35.616Z,3.30
2019-01-12T11:27:02.315Z,3.40
2019-01-12T11:29:29.029Z,3.40
2019-01-12T11:31:55.752Z,3.40
2019-01-12T11:34:22.232Z,3.50
2019-01-12T11:36:48.928Z,3.50
2019-01-12T11:39:15.655Z,3.50
2019-01-12T11:41:42.114Z,3.50
2019-01-12T11:44:08.596Z,3.50
2019-01-12T11:46:35.318Z,3.60
2019-01-12T11:49:01.771Z,3.60
2019-01-12T11:51:28.257Z,3.70
2019-01-12T11:53:54.710Z,3.70
2019-01-12T11:56:21.454Z,3.70
2019-01-12T11:58:48.488Z,3.70
2019-01-12T12:01:14.999Z,3.60
2019-01-12T12:03:41.481Z,3.40
2019-01-12T12:06:08.207Z,3.40
2019-01-12T12:08:34.662Z,3.30
2019-01-12T12:11:01.139Z,3.30
2019-01-12T12:13:28.244Z,3.30
2019-01-12T12:15:54.976Z,3.20
2019-01-12T12:18:21.437Z,3.20
2019-01-12T12:20:48.167Z,3.20
2019-01-12T12:23:14.615Z,3.20
2019-01-12T12:25:41.096Z,3.20
2019-01-12T12:28:08.452Z,3.10
2019-01-12T12:30:35.340Z,3.10
2019-01-12T12:33:01.784Z,3.10
2019-01-12T12:35:28.512Z,3.00
2019-01-12T12:37:54.977Z,3.10
2019-01-12T12:40:21.852Z,3.00
2019-01-12T12:42:48.575Z,3.00
2019-01-12T12:45:16.572Z,3.00
2019-01-12T12:47:43.024Z,3.10
2019-01-12T12:50:10.051Z,3.10
2019-01-12T12:52:36.637Z,3.10
2019-01-12T12:55:03.781Z,3.10
2019-01-12T12:57:33.037Z,3.10
2019-01-12T12:59:59.108Z,3.10
2019-01-12T13:02:25.587Z,3.10
2019-01-12T13:04:52.039Z,3.10
2019-01-12T13:07:18.727Z,3.00
2019-01-12T13:09:45.433Z,3.00
2019-01-12T13:12:11.915Z,3.00
2019-01-12T13:14:38.620Z,3.00
2019-01-12T13:17:05.351Z,3.00
2019-01-12T13:19:32.052Z,3.00
2019-01-12T13:21:58.643Z,3.00
2019-01-12T13:24:25.088Z,3.00
2019-01-12T13:26:51.814Z,3.00
2019-01-12T13:29:18.616Z,3.00
2019-01-12T13:31:45.371Z,3.00
2019-01-12T13:34:12.072Z,3.00
2019-01-12T13:36:38.551Z,3.00
2019-01-12T13:39:06.054Z,3.00
2019-01-12T13:41:32.536Z,3.10
2019-01-12T13:43:59.235Z,3.10
2019-01-12T13:46:26.195Z,3.00
2019-01-12T13:48:53.094Z,3.00
2019-01-12T13:51:19.588Z,3.00
2019-01-12T13:53:46.301Z,3.00
2019-01-12T13:56:12.794Z,2.90
2019-01-12T13:58:39.492Z,2.90
2019-01-12T14:01:05.952Z,2.90
2019-01-12T14:03:32.687Z,2.90
2019-01-12T14:05:59.187Z,2.80
2019-01-12T14:08:25.827Z,2.80
2019-01-12T14:10:52.384Z,2.80
2019-01-12T14:13:19.129Z,2.80
2019-01-12T14:15:45.836Z,2.80
2019-01-12T14:18:12.572Z,2.80
2019-01-12T14:20:39.513Z,2.70
2019-01-12T14:23:06.320Z,2.70
2019-01-12T14:25:32.776Z,2.70
2019-01-12T14:27:59.494Z,2.70
2019-01-12T14:30:26.252Z,2.70
2019-01-12T14:32:52.963Z,2.70
2019-01-12T14:35:19.422Z,2.70
2019-01-12T14:37:46.156Z,2.70
2019-01-12T14:40:13.575Z,2.70
2019-01-12T14:42:40.303Z,2.70
2019-01-12T14:45:08.495Z,2.70
2019-01-12T14:47:35.248Z,2.70
2019-01-12T14:50:01.701Z,2.60
2019-01-12T14:52:28.436Z,2.60
2019-01-12T14:54:54.897Z,2.60
2019-01-12T14:57:21.724Z,2.60
2019-01-12T14:59:48.523Z,2.70
2019-01-12T15:02:15.252Z,2.60
2019-01-12T15:04:41.744Z,2.60
2019-01-12T15:07:08.325Z,2.70
2019-01-12T15:09:34.776Z,2.60
2019-01-12T15:12:01.252Z,2.60
2019-01-12T15:14:27.958Z,2.60
2019-01-12T15:16:54.678Z,2.60
2019-01-12T15:19:21.131Z,2.60
2019-01-12T15:21:47.811Z,2.60
2019-01-12T15:24:14.545Z,2.60
2019-01-12T15:26:41.003Z,2.60
2019-01-12T15:29:07.733Z,2.60
2019-01-12T15:31:34.455Z,2.60
2019-01-12T15:34:01.416Z,2.60
2019-01-12T15:36:28.115Z,2.60
2019-01-12T15:38:54.635Z,2.60
2019-01-12T15:41:21.152Z,2.60
2019-01-12T15:43:47.891Z,2.60
2019-01-12T15:46:14.592Z,2.60
2019-01-12T15:48:41.068Z,2.60
2019-01-12T15:51:07.524Z,2.60
2019-01-12T15:53:34.255Z,2.60
2019-01-12T15:56:00.713Z,2.60
2019-01-12T15:58:27.212Z,2.60
2019-01-12T16:00:53.680Z,2.60
2019-01-12T16:03:20.532Z,2.60
2019-01-12T16:05:46.988Z,2.70
2019-01-12T16:08:13.473Z,2.60
2019-01-12T16:10:40.177Z,2.60
2019-01-12T16:13:06.908Z,2.60
2019-01-12T16:15:33.368Z,2.70
2019-01-12T16:18:00.087Z,2.70
2019-01-12T16:20:33.836Z,2.70
2019-01-12T16:23:00.328Z,2.70
2019-01-12T16:25:27.037Z,2.70
2019-01-12T16:27:53.747Z,2.70
2019-01-12T16:30:20.200Z,2.70
2019-01-12T16:32:46.996Z,2.70
2019-01-12T16:35:13.700Z,2.70
2019-01-12T16:37:40.427Z,2.70
2019-01-12T16:40:08.484Z,2.70
2019-01-12T16:42:35.219Z,2.70
2019-01-12T16:45:01.942Z,2.80
2019-01-12T16:47:28.479Z,2.70
2019-01-12T16:49:55.459Z,2.70
2019-01-12T16:52:21.912Z,2.80
2019-01-12T16:54:48.392Z,2.80
2019-01-12T16:57:14.846Z,2.80
2019-01-12T16:59:41.572Z,2.80
2019-01-12T17:02:08.932Z,2.80
2019-01-12T17:04:35.417Z,2.80
2019-01-12T17:07:02.119Z,2.80
2019-01-12T17:09:28.853Z,2.80
2019-01-12T17:11:55.304Z,2.70
2019-01-12T17:14:22.032Z,2.80
2019-01-12T17:16:48.593Z,2.80
2019-01-12T17:19:15.319Z,2.70
2019-01-12T17:21:42.016Z,2.70
2019-01-12T17:24:08.748Z,2.70
2019-01-12T17:26:35.473Z,2.70
2019-01-12T17:29:01.957Z,2.80
2019-01-12T17:31:28.684Z,2.70
2019-01-12T17:33:55.167Z,2.80
2019-01-12T17:36:21.648Z,2.70
2019-01-12T17:38:48.132Z,2.80
2019-01-12T17:41:14.864Z,2.80
2019-01-12T17:43:42.389Z,2.80
2019-01-12T17:46:09.526Z,2.80
2019-01-12T17:48:36.254Z,2.70
2019-01-12T17:51:02.711Z,2.80
2019-01-12T17:53:29.192Z,2.70
2019-01-12T17:55:55.897Z,2.80
2019-01-12T17:58:22.629Z,2.80
2019-01-12T18:00:50.260Z,2.80
2019-01-12T18:03:16.942Z,2.80
2019-01-12T18:05:43.437Z,2.80
2019-01-12T18:08:09.880Z,2.80
2019-01-12T18:10:36.403Z,2.70
2019-01-12T18:13:02.859Z,2.80
2019-01-12T18:15:29.343Z,2.80
2019-01-12T18:17:56.042Z,2.80
2019-01-12T18:20:22.771Z,2.80
2019-01-12T18:22:49.500Z,2.80
2019-01-12T18:25:16.968Z,2.80
2019-01-12T18:27:44.082Z,2.80
2019-01-12T18:30:12.308Z,2.80
2019-01-12T18:32:38.792Z,2.80
2019-01-12T18:35:05.532Z,2.80
2019-01-12T18:37:32.236Z,2.80
2019-01-12T18:39:58.724Z,2.80
2019-01-12T18:42:25.181Z,2.90
2019-01-12T18:44:51.672Z,2.80
2019-01-12T18:47:18.368Z,2.90
2019-01-12T18:49:44.852Z,2.80
2019-01-12T18:52:11.304Z,2.90
2019-01-12T18:54:38.041Z,2.90
2019-01-12T18:57:04.758Z,2.90
2019-01-12T18:59:31.240Z,2.90
2019-01-12T19:01:57.688Z,2.90
2019-01-12T19:04:24.172Z,2.90
2019-01-12T19:06:50.630Z,2.90
2019-01-12T19:09:17.336Z,2.90
2019-01-12T19:11:44.611Z,2.90
2019-01-12T19:14:11.543Z,2.90
2019-01-12T19:16:38.275Z,2.90
2019-01-12T19:19:04.972Z,2.90
2019-01-12T19:21:31.458Z,2.90
2019-01-12T19:23:58.164Z,2.80
2019-01-12T19:26:24.891Z,2.80
2019-01-12T19:28:51.588Z,2.80
2019-01-12T19:31:18.344Z,2.80
2019-01-12T19:33:45.047Z,2.80
2019-01-12T19:36:11.775Z,2.90
2019-01-12T19:38:38.477Z,2.90
2019-01-12T19:41:05.208Z,2.90
2019-01-12T19:43:31.912Z,2.90
2019-01-12T19:45:58.644Z,3.00
2019-01-12T19:48:25.343Z,3.00
2019-01-12T19:50:51.825Z,3.00
2019-01-12T19:53:18.528Z,3.00
2019-01-12T19:55:45.009Z,3.00
2019-01-12T19:58:11.712Z,3.00
2019-01-12T20:00:38.192Z,3.00
2019-01-12T20:03:04.684Z,3.00
2019-01-12T20:05:31.411Z,3.00
2019-01-12T20:07:58.091Z,3.00
2019-01-12T20:10:24.611Z,3.00
2019-01-12T20:12:51.291Z,3.00
2019-01-12T20:15:19.128Z,3.00
2019-01-12T20:17:46.088Z,3.00
2019-01-12T20:20:12.727Z,3.00
2019-01-12T20:22:39.456Z,3.00
2019-01-12T20:25:07.136Z,3.00
2019-01-12T20:27:33.842Z,3.00
2019-01-12T20:30:00.948Z,3.00
2019-01-12T20:32:40.828Z,3.00
2019-01-12T20:35:16.436Z,3.00
2019-01-12T20:37:58.052Z,3.00
2019-01-12T20:40:34.600Z,3.00
2019-01-12T20:43:05.339Z,3.00
2019-01-12T20:45:43.923Z,2.90
2019-01-12T20:48:33.119Z,2.90
2019-01-12T20:51:02.842Z,2.90
2019-01-12T20:53:32.240Z,2.90
2019-01-12T20:56:18.408Z,2.90
2019-01-12T20:58:55.532Z,2.90
2019-01-12T21:01:41.707Z,2.90
2019-01-12T21:04:26.287Z,2.90
2019-01-12T21:06:57.600Z,2.90
2019-01-12T21:09:46.648Z,2.90
2019-01-12T21:12:21.584Z,2.90
2019-01-12T21:14:56.571Z,2.90
2019-01-12T21:17:23.165Z,3.00
2019-01-12T21:19:49.618Z,3.00
2019-01-12T21:22:16.344Z,3.00
2019-01-12T21:24:43.375Z,3.00
2019-01-12T21:27:09.983Z,2.90
2019-01-12T21:29:36.444Z,3.00
2019-01-12T21:32:03.191Z,3.00
2019-01-12T21:34:29.906Z,3.00
2019-01-12T21:36:56.385Z,3.00
2019-01-12T21:39:23.091Z,3.00
2019-01-12T21:41:49.572Z,3.00
2019-01-12T21:44:16.272Z,3.00
2019-01-12T21:46:43.004Z,3.00
2019-01-12T21:49:09.709Z,3.00
2019-01-12T21:51:36.416Z,3.00
2019-01-12T21:54:03.132Z,2.90
2019-01-12T21:56:29.783Z,2.90
2019-01-12T21:58:56.532Z,2.90
2019-01-12T22:01:23.528Z,2.90
2019-01-12T22:03:50.493Z,3.00
2019-01-12T22:06:16.935Z,2.90
2019-01-12T22:08:43.420Z,3.00
2019-01-12T22:11:09.877Z,3.00
2019-01-12T22:13:36.604Z,3.00
2019-01-12T22:16:03.395Z,3.00
2019-01-12T22:18:30.447Z,3.00
2019-01-12T22:20:57.147Z,3.00
2019-01-12T22:23:23.861Z,3.00
2019-01-12T22:25:50.339Z,3.00
2019-01-12T22:28:17.076Z,2.90
2019-01-12T22:30:43.771Z,2.90
2019-01-12T22:33:10.290Z,2.90
2019-01-12T22:35:37.642Z,2.80
2019-01-12T22:38:04.385Z,2.90
2019-01-12T22:40:30.836Z,2.90
2019-01-12T22:42:57.316Z,2.90
2019-01-12T22:45:24.015Z,2.90
2019-01-12T22:47:50.744Z,2.90
2019-01-12T22:50:17.444Z,3.00
2019-01-12T22:52:43.929Z,3.00
2019-01-12T22:55:10.472Z,3.00
2019-01-12T22:57:37.048Z,3.00
2019-01-12T23:00:09.680Z,3.10
2019-01-12T23:02:36.434Z,3.00
2019-01-12T23:05:02.900Z,3.00
2019-01-12T23:07:29.484Z,3.00
2019-01-12T23:09:56.185Z,3.00
2019-01-12T23:12:22.875Z,3.00
2019-01-12T23:14:49.355Z,2.90
2019-01-12T23:17:15.812Z,2.90
2019-01-12T23:19:42.297Z,2.90
2019-01-12T23:22:08.758Z,2.90
2019-01-12T23:24:35.240Z,2.90
2019-01-12T23:27:01.951Z,2.90
2019-01-12T23:29:28.675Z,2.90
2019-01-12T23:31:55.155Z,2.90
2019-01-12T23:34:21.887Z,3.00
2019-01-12T23:36:48.343Z,2.90
2019-01-12T23:39:14.827Z,2.90
2019-01-12T23:41:41.286Z,2.90
2019-01-12T23:44:14.697Z,2.90
2019-01-12T23:46:36.439Z,2.90
2019-01-12T23:49:03.302Z,3.00
2019-01-12T23:51:29.753Z,3.00
2019-01-12T23:53:56.836Z,3.00
2019-01-12T23:56:23.566Z,3.00
2019-01-12T23:58:50.372Z,3.00
